createdAt,value
2023-04-03T00:03:27.532Z,0.55
2023-04-03T00:08:24.033Z,0.53
2023-04-03T00:13:20.436Z,0.46
2023-04-03T00:18:16.868Z,0.40
2023-04-03T00:23:13.298Z,0.34
2023-04-03T00:28:09.852Z,0.37
2023-04-03T00:33:06.358Z,0.37
2023-04-03T00:38:02.784Z,0.26
2023-04-03T00:43:00.437Z,0.28
2023-04-03T00:47:57.820Z,0.23
2023-04-03T00:52:55.191Z,0.14
2023-04-03T00:57:53.167Z,0.06
2023-04-03T01:08:20.061Z,-0.06
2023-04-03T01:13:23.257Z,-0.06
2023-04-03T01:18:20.385Z,0.03
2023-04-03T01:23:32.652Z,-0.07
2023-04-03T01:28:32.486Z,-0.14
2023-04-03T01:33:28.965Z,-0.20
2023-04-03T01:38:25.388Z,-0.28
2023-04-03T01:43:21.770Z,-0.30
2023-04-03T01:48:18.223Z,-0.34
2023-04-03T01:53:14.736Z,-0.37
2023-04-03T01:58:11.164Z,-0.42
2023-04-03T02:03:07.815Z,-0.44
2023-04-03T02:08:04.740Z,-0.45
2023-04-03T02:13:01.427Z,-0.49
2023-04-03T02:17:57.990Z,-0.38
2023-04-03T02:22:54.501Z,-0.40
2023-04-03T02:27:51.065Z,-0.43
2023-04-03T02:32:47.908Z,-0.49
2023-04-03T02:37:44.335Z,-0.40
2023-04-03T02:42:41.061Z,-0.34
2023-04-03T02:47:37.499Z,-0.47
2023-04-03T02:52:34.064Z,-0.55
2023-04-03T02:57:30.840Z,-0.57
2023-04-03T03:02:27.405Z,-0.54
2023-04-03T03:07:23.929Z,-0.66
2023-04-03T03:12:22.585Z,-0.73
2023-04-03T03:17:19.288Z,-0.66
2023-04-03T03:22:15.967Z,-0.71
2023-04-03T03:27:13.075Z,-0.80
2023-04-03T03:32:09.663Z,-0.78
2023-04-03T03:37:06.094Z,-0.83
2023-04-03T03:42:02.683Z,-0.83
2023-04-03T03:46:59.395Z,-0.94
2023-04-03T03:51:56.136Z,-0.88
2023-04-03T03:56:53.886Z,-0.86
2023-04-03T04:01:50.335Z,-0.88
2023-04-03T04:06:47.016Z,-0.91
2023-04-03T04:11:43.509Z,-0.90
2023-04-03T04:16:40.250Z,-0.94
2023-04-03T04:21:36.706Z,-0.98
2023-04-03T04:26:33.125Z,-1.06
2023-04-03T04:31:29.678Z,-1.01
2023-04-03T04:36:26.497Z,-1.09
2023-04-03T04:41:24.015Z,-1.12
2023-04-03T04:46:20.779Z,-1.13
2023-04-03T04:51:17.227Z,-1.03
2023-04-03T04:56:13.719Z,-0.98
2023-04-03T05:01:11.414Z,-0.97
2023-04-03T05:06:08.213Z,-0.90
2023-04-03T05:11:04.682Z,-0.84
2023-04-03T05:16:01.104Z,-0.80
2023-04-03T05:20:58.675Z,-0.84
2023-04-03T05:25:55.245Z,-0.81
2023-04-03T05:30:56.698Z,-0.82
2023-04-03T05:35:54.110Z,-0.74
2023-04-03T05:40:50.706Z,-0.83
2023-04-03T05:45:48.652Z,-0.73
2023-04-03T05:50:45.166Z,-0.74
2023-04-03T05:55:41.565Z,-0.68
2023-04-03T06:00:37.988Z,-0.65
2023-04-03T06:05:34.405Z,-0.64
2023-04-03T06:10:31.367Z,-0.58
2023-04-03T06:15:28.177Z,-0.51
2023-04-03T06:20:25.339Z,-0.41
2023-04-03T06:25:22.045Z,-0.32
2023-04-03T06:30:18.562Z,-0.21
2023-04-03T06:35:15.168Z,-0.15
2023-04-03T06:40:23.155Z,-0.02
2023-04-03T06:45:20.493Z,0.07
2023-04-03T06:50:17.001Z,0.22
2023-04-03T06:55:13.522Z,0.45
2023-04-03T07:00:11.812Z,0.54
2023-04-03T07:05:09.870Z,0.85
2023-04-03T07:10:07.480Z,1.04
2023-04-03T07:15:05.139Z,1.26
2023-04-03T07:20:01.589Z,1.51
2023-04-03T07:24:58.050Z,1.66
2023-04-03T07:29:55.603Z,1.84
2023-04-03T07:34:53.017Z,2.00
2023-04-03T07:39:49.874Z,2.13
2023-04-03T07:44:46.585Z,2.29
2023-04-03T07:49:44.732Z,2.54
2023-04-03T07:54:41.183Z,2.71
2023-04-03T07:59:37.618Z,2.85
2023-04-03T08:04:34.204Z,2.98
2023-04-03T08:09:30.732Z,3.12
2023-04-03T08:14:27.445Z,3.23
2023-04-03T08:19:26.626Z,3.40
2023-04-03T08:24:23.417Z,3.40
2023-04-03T08:29:19.880Z,3.72
2023-04-03T08:34:16.400Z,3.90
2023-04-03T08:39:13.593Z,3.97
2023-04-03T08:44:17.331Z,4.19
2023-04-03T08:49:25.651Z,4.27
2023-04-03T08:54:29.557Z,4.29
2023-04-03T08:59:30.757Z,4.37
2023-04-03T09:04:28.810Z,4.62
2023-04-03T09:09:42.944Z,4.71
2023-04-03T09:14:42.024Z,4.90
2023-04-03T09:20:21.292Z,4.97
2023-04-03T09:25:22.460Z,5.16
2023-04-03T09:30:24.580Z,5.54
2023-04-03T09:35:39.960Z,5.57
2023-04-03T09:40:46.564Z,5.69
2023-04-03T09:45:43.706Z,5.94
2023-04-03T09:51:00.281Z,6.18
2023-04-03T09:55:57.383Z,7.07
2023-04-03T10:00:59.752Z,7.60
2023-04-03T10:05:56.321Z,7.93
2023-04-03T10:11:17.869Z,8.52
2023-04-03T10:16:18.514Z,9.24
2023-04-03T10:21:47.754Z,9.47
2023-04-03T10:27:03.670Z,8.56
2023-04-03T10:32:26.901Z,9.36
2023-04-03T10:37:50.620Z,10.15
2023-04-03T10:43:27.838Z,11.90
2023-04-03T10:48:40.943Z,13.53
2023-04-03T10:53:46.234Z,12.50
2023-04-03T10:58:58.877Z,14.05
2023-04-03T11:04:00.181Z,11.72
2023-04-03T11:09:28.091Z,10.78
2023-04-03T11:14:35.953Z,11.62
2023-04-03T11:19:50.867Z,11.05
2023-04-03T11:25:07.432Z,11.39
2023-04-03T11:30:08.923Z,12.97
2023-04-03T11:35:08.288Z,10.34
2023-04-03T11:40:16.542Z,9.47
2023-04-03T11:45:27.985Z,8.60
2023-04-03T11:50:42.657Z,8.50
2023-04-03T11:55:46.608Z,9.14
2023-04-03T12:00:51.937Z,12.27
2023-04-03T12:05:48.406Z,11.27
2023-04-03T12:11:10.867Z,13.87
2023-04-03T12:16:19.736Z,15.16
2023-04-03T12:21:22.301Z,16.40
2023-04-03T12:26:18.669Z,16.85
2023-04-03T12:31:16.067Z,17.91
2023-04-03T12:36:19.348Z,16.60
2023-04-03T12:41:28.723Z,17.76
2023-04-03T12:46:33.614Z,18.86
2023-04-03T12:51:40.995Z,16.87
2023-04-03T12:56:37.447Z,16.15
2023-04-03T13:01:33.925Z,18.45
2023-04-03T13:06:39.846Z,14.16
2023-04-03T13:11:41.694Z,17.24
2023-04-03T13:16:42.242Z,18.44
2023-04-03T13:21:38.834Z,15.55
2023-04-03T13:26:35.754Z,19.23
2023-04-03T13:31:35.302Z,18.37
2023-04-03T13:36:41.357Z,18.97
2023-04-03T13:41:40.383Z,18.22
2023-04-03T13:46:36.822Z,18.79
2023-04-03T13:51:33.240Z,20.22
2023-04-03T13:56:42.876Z,19.00
2023-04-03T14:01:55.782Z,18.53
2023-04-03T14:06:53.217Z,18.14
2023-04-03T14:11:52.561Z,18.61
2023-04-03T14:16:54.272Z,19.34
2023-04-03T14:21:51.909Z,20.11
2023-04-03T14:26:51.097Z,18.61
2023-04-03T14:31:48.186Z,18.29
2023-04-03T14:36:45.780Z,17.78
2023-04-03T14:41:42.410Z,18.66
2023-04-03T14:46:55.700Z,18.99
2023-04-03T14:51:53.626Z,18.68
2023-04-03T14:56:50.319Z,17.49
2023-04-03T15:01:47.213Z,16.74
2023-04-03T15:06:44.137Z,15.44
2023-04-03T15:11:40.528Z,14.51
2023-04-03T15:16:37.079Z,14.35
2023-04-03T15:21:33.538Z,14.30
2023-04-03T15:26:30.481Z,16.11
2023-04-03T15:31:27.040Z,15.09
2023-04-03T15:41:25.989Z,12.37
2023-04-03T15:46:22.659Z,11.76
2023-04-03T15:51:19.287Z,14.40
2023-04-03T15:56:15.914Z,15.53
2023-04-03T16:01:12.709Z,15.53
2023-04-03T16:06:09.088Z,14.91
2023-04-03T16:11:05.646Z,12.85
2023-04-03T16:16:02.925Z,11.94
2023-04-03T16:20:59.988Z,13.25
2023-04-03T16:25:56.869Z,12.28
2023-04-03T16:30:53.453Z,12.87
2023-04-03T16:35:51.603Z,12.15
2023-04-03T16:40:49.311Z,12.18
2023-04-03T16:45:45.928Z,12.03
2023-04-03T16:50:42.415Z,11.54
2023-04-03T16:55:40.514Z,11.11
2023-04-03T17:00:37.490Z,11.27
2023-04-03T17:05:34.325Z,11.25
2023-04-03T17:10:31.410Z,11.17
2023-04-03T17:15:28.063Z,10.24
2023-04-03T17:20:24.702Z,9.25
2023-04-03T17:25:21.249Z,7.96
2023-04-03T17:30:17.983Z,8.10
2023-04-03T17:35:14.613Z,8.10
2023-04-03T17:40:14.143Z,7.26
2023-04-03T17:45:10.958Z,7.32
2023-04-03T17:50:08.298Z,7.10
2023-04-03T17:55:05.289Z,7.22
2023-04-03T18:00:01.794Z,6.94
2023-04-03T18:04:58.437Z,6.60
2023-04-03T18:09:57.135Z,6.60
2023-04-03T18:14:54.648Z,6.11
2023-04-03T18:19:51.864Z,6.21
2023-04-03T18:24:50.809Z,6.17
2023-04-03T18:29:54.192Z,5.90
2023-04-03T18:34:51.257Z,5.48
2023-04-03T18:39:48.036Z,5.36
2023-04-03T18:44:47.912Z,5.36
2023-04-03T18:49:44.862Z,5.36
2023-04-03T18:54:42.755Z,5.22
2023-04-03T18:59:39.219Z,5.20
2023-04-03T19:04:36.481Z,5.00
2023-04-03T19:09:33.354Z,4.77
2023-04-03T19:14:29.920Z,4.93
2023-04-03T19:19:26.358Z,4.83
2023-04-03T19:24:22.785Z,4.78
2023-04-03T19:29:19.364Z,4.53
2023-04-03T19:34:15.962Z,4.49
2023-04-03T19:39:15.725Z,4.39
2023-04-03T19:44:12.753Z,4.22
2023-04-03T19:49:10.422Z,3.91
2023-04-03T19:54:07.170Z,3.94
2023-04-03T19:59:03.891Z,3.73
2023-04-03T20:04:00.799Z,3.57
2023-04-03T20:08:57.549Z,3.53
2023-04-03T20:13:55.598Z,3.25
2023-04-03T20:18:54.939Z,3.08
2023-04-03T20:23:51.801Z,3.11
2023-04-03T20:28:48.265Z,3.04
2023-04-03T20:33:46.011Z,2.98
2023-04-03T20:38:42.517Z,2.89
2023-04-03T20:43:39.855Z,2.74
2023-04-03T20:48:36.769Z,2.60
2023-04-03T20:53:33.233Z,2.50
2023-04-03T20:58:32.968Z,2.41
2023-04-03T21:03:37.544Z,2.37
2023-04-03T21:09:11.954Z,2.22
2023-04-03T21:14:50.027Z,2.15
2023-04-03T21:19:57.050Z,2.05
2023-04-03T21:24:57.986Z,2.00
2023-04-03T21:29:59.876Z,1.91
2023-04-03T21:35:09.735Z,1.81
2023-04-03T21:40:15.263Z,1.82
2023-04-03T21:45:16.263Z,1.78
2023-04-03T21:50:18.004Z,1.66
2023-04-03T21:55:18.164Z,1.59
2023-04-03T22:00:22.045Z,1.50
2023-04-03T22:05:21.474Z,1.40
2023-04-03T22:10:21.549Z,1.27
2023-04-03T22:15:20.655Z,1.29
2023-04-03T22:20:19.522Z,1.30
2023-04-03T22:25:20.750Z,1.19
2023-04-03T22:30:27.345Z,1.17
2023-04-03T22:35:27.490Z,1.12
2023-04-03T22:40:29.016Z,1.01
2023-04-03T22:45:25.764Z,0.96
2023-04-03T22:50:36.815Z,0.92
2023-04-03T22:55:38.669Z,0.76
2023-04-03T23:00:45.819Z,0.78
2023-04-03T23:05:43.910Z,0.72
2023-04-03T23:10:44.594Z,0.68
2023-04-03T23:15:53.648Z,0.62
2023-04-03T23:20:55.584Z,0.53
2023-04-03T23:26:05.228Z,0.51
2023-04-03T23:31:10.534Z,0.47
2023-04-03T23:36:13.455Z,0.48
2023-04-03T23:41:22.897Z,0.63
2023-04-03T23:46:22.548Z,0.50
2023-04-03T23:51:27.758Z,0.40
2023-04-03T23:56:33.584Z,0.37
